createdAt,value
2022-07-25T00:01:47.172Z,2.10
2022-07-25T00:04:14.859Z,1.90
2022-07-25T00:06:42.242Z,1.88
2022-07-25T00:09:09.124Z,1.92
2022-07-25T00:11:36.301Z,1.80
2022-07-25T00:14:04.006Z,1.80
2022-07-25T00:16:31.285Z,2.10
2022-07-25T00:18:58.391Z,1.92
2022-07-25T00:21:25.615Z,1.88
2022-07-25T00:23:52.543Z,2.40
2022-07-25T00:26:19.564Z,2.00
2022-07-25T00:28:46.439Z,1.90
2022-07-25T00:31:13.481Z,1.95
2022-07-25T00:33:40.509Z,2.08
2022-07-25T00:36:08.017Z,2.35
2022-07-25T00:38:34.948Z,2.03
2022-07-25T00:41:03.027Z,1.90
2022-07-25T00:43:29.905Z,1.95
2022-07-25T00:45:59.320Z,1.90
2022-07-25T00:48:27.485Z,2.03
2022-07-25T00:50:55.165Z,1.95
2022-07-25T00:53:22.957Z,1.95
2022-07-25T00:55:50.043Z,2.10
2022-07-25T00:58:18.960Z,2.10
2022-07-25T01:00:46.074Z,1.90
2022-07-25T01:03:13.333Z,1.60
2022-07-25T01:05:40.681Z,2.25
2022-07-25T01:08:07.783Z,1.83
2022-07-25T01:10:34.834Z,1.60
2022-07-25T01:13:01.785Z,1.98
2022-07-25T01:15:29.080Z,1.98
2022-07-25T01:17:56.869Z,1.98
2022-07-25T01:20:24.823Z,2.13
2022-07-25T01:22:52.732Z,2.40
2022-07-25T01:25:19.760Z,2.53
2022-07-25T01:27:51.240Z,2.20
2022-07-25T01:30:22.015Z,2.33
2022-07-25T01:32:49.495Z,2.35
2022-07-25T01:35:16.783Z,2.55
2022-07-25T01:37:46.110Z,2.35
2022-07-25T01:40:13.820Z,2.10
2022-07-25T01:42:41.385Z,2.55
2022-07-25T01:45:08.811Z,2.65
2022-07-25T01:47:35.833Z,2.28
2022-07-25T01:50:02.764Z,2.53
2022-07-25T01:52:29.719Z,2.30
2022-07-25T01:54:56.726Z,2.33
2022-07-25T01:57:27.901Z,2.58
2022-07-25T01:59:57.830Z,2.53
2022-07-25T02:02:24.731Z,3.30
2022-07-25T02:04:51.655Z,2.60
2022-07-25T02:07:18.636Z,2.75
2022-07-25T02:09:45.556Z,2.60
2022-07-25T02:12:12.580Z,2.60
2022-07-25T02:14:39.515Z,2.53
2022-07-25T02:17:06.697Z,2.60
2022-07-25T02:19:34.429Z,2.63
2022-07-25T02:22:01.381Z,3.33
2022-07-25T02:24:28.269Z,2.42
2022-07-25T02:26:55.212Z,2.65
2022-07-25T02:29:22.314Z,2.60
2022-07-25T02:31:49.330Z,2.78
2022-07-25T02:34:16.260Z,3.08
2022-07-25T02:36:43.308Z,2.65
2022-07-25T02:39:10.239Z,3.08
2022-07-25T02:41:37.741Z,2.75
2022-07-25T02:44:05.896Z,2.67
2022-07-25T02:46:33.648Z,2.85
2022-07-25T02:49:00.742Z,2.90
2022-07-25T02:51:27.732Z,2.92
2022-07-25T02:53:57.571Z,2.95
2022-07-25T02:56:26.314Z,2.78
2022-07-25T02:58:57.463Z,2.53
2022-07-25T03:01:24.710Z,2.38
2022-07-25T03:03:51.833Z,3.30
2022-07-25T03:06:18.777Z,2.97
2022-07-25T03:08:45.675Z,3.47
2022-07-25T03:11:13.488Z,2.92
2022-07-25T03:13:40.677Z,2.88
2022-07-25T03:16:08.109Z,2.78
2022-07-25T03:18:35.513Z,2.97
2022-07-25T03:21:02.565Z,2.88
2022-07-25T03:23:31.013Z,2.80
2022-07-25T03:25:58.597Z,3.03
2022-07-25T03:28:25.591Z,3.38
2022-07-25T03:30:52.956Z,2.40
2022-07-25T03:33:19.833Z,2.80
2022-07-25T03:35:46.781Z,2.80
2022-07-25T03:38:13.943Z,2.92
2022-07-25T03:40:41.403Z,2.65
2022-07-25T03:43:08.753Z,3.20
2022-07-25T03:45:35.850Z,2.80
2022-07-25T03:48:02.981Z,2.83
2022-07-25T03:50:30.018Z,3.25
2022-07-25T03:52:56.904Z,2.72
2022-07-25T03:55:23.881Z,2.72
2022-07-25T03:57:50.966Z,3.08
2022-07-25T04:00:17.883Z,2.90
2022-07-25T04:02:44.927Z,3.00
2022-07-25T04:05:11.941Z,3.53
2022-07-25T04:07:38.926Z,3.17
2022-07-25T04:10:06.321Z,3.00
2022-07-25T04:12:33.875Z,2.90
2022-07-25T04:15:01.361Z,3.25
2022-07-25T04:17:28.241Z,2.95
2022-07-25T04:19:55.254Z,3.00
2022-07-25T04:22:23.535Z,3.08
2022-07-25T04:24:50.597Z,2.38
2022-07-25T04:27:17.557Z,3.05
2022-07-25T04:29:44.466Z,2.83
2022-07-25T04:32:11.641Z,3.17
2022-07-25T04:34:38.627Z,3.00
2022-07-25T04:37:05.633Z,2.95
2022-07-25T04:39:32.490Z,2.85
2022-07-25T04:41:59.719Z,2.70
2022-07-25T04:44:26.681Z,2.70
2022-07-25T04:46:53.560Z,2.70
2022-07-25T04:49:20.525Z,2.90
2022-07-25T04:51:47.407Z,2.88
2022-07-25T04:54:14.460Z,2.50
2022-07-25T04:56:41.445Z,2.58
2022-07-25T04:59:09.833Z,2.70
2022-07-25T05:01:36.832Z,2.60
2022-07-25T05:04:04.344Z,2.88
2022-07-25T05:06:31.489Z,2.30
2022-07-25T05:08:58.451Z,2.60
2022-07-25T05:11:25.411Z,2.50
2022-07-25T05:13:52.254Z,2.42
2022-07-25T05:16:19.194Z,2.40
2022-07-25T05:18:46.140Z,2.88
2022-07-25T05:21:13.397Z,2.55
2022-07-25T05:23:41.277Z,2.30
2022-07-25T05:26:08.983Z,2.70
2022-07-25T05:28:36.117Z,2.63
2022-07-25T05:31:03.201Z,2.22
2022-07-25T05:33:30.488Z,3.08
2022-07-25T05:35:57.392Z,2.45
2022-07-25T05:38:24.868Z,2.38
2022-07-25T05:40:52.401Z,2.33
2022-07-25T05:43:20.894Z,2.25
2022-07-25T05:45:47.809Z,2.55
2022-07-25T05:48:15.075Z,2.97
2022-07-25T05:50:42.076Z,2.22
2022-07-25T05:53:09.426Z,2.13
2022-07-25T05:55:40.702Z,2.28
2022-07-25T05:58:09.553Z,2.40
2022-07-25T06:00:37.082Z,2.17
2022-07-25T06:03:04.287Z,1.63
2022-07-25T06:05:31.389Z,1.80
2022-07-25T06:07:58.385Z,2.22
2022-07-25T06:10:25.315Z,1.83
2022-07-25T06:12:52.177Z,1.80
2022-07-25T06:15:19.309Z,1.63
2022-07-25T06:17:49.263Z,1.70
2022-07-25T06:20:16.317Z,1.77
2022-07-25T06:22:43.211Z,1.70
2022-07-25T06:25:10.122Z,1.92
2022-07-25T06:27:38.157Z,1.63
2022-07-25T06:30:06.616Z,2.10
2022-07-25T06:32:38.393Z,1.83
2022-07-25T06:35:05.555Z,2.08
2022-07-25T06:37:32.469Z,1.77
2022-07-25T06:40:00.601Z,1.85
2022-07-25T06:42:27.508Z,1.80
2022-07-25T06:44:54.371Z,2.03
2022-07-25T06:47:21.641Z,1.40
2022-07-25T06:49:48.573Z,1.75
2022-07-25T06:52:16.010Z,1.70
2022-07-25T06:54:45.903Z,1.40
2022-07-25T06:57:12.896Z,1.70
2022-07-25T06:59:39.931Z,1.80
2022-07-25T07:02:06.789Z,1.63
2022-07-25T07:04:33.685Z,1.50
2022-07-25T07:07:00.580Z,1.27
2022-07-25T07:09:27.547Z,1.50
2022-07-25T07:11:54.478Z,1.40
2022-07-25T07:14:21.372Z,1.17
2022-07-25T07:16:48.245Z,1.38
2022-07-25T07:19:16.840Z,1.33
2022-07-25T07:21:43.790Z,1.60
2022-07-25T07:24:23.364Z,1.30
2022-07-25T07:26:50.806Z,1.05
2022-07-25T07:29:17.681Z,1.35
2022-07-25T07:31:44.619Z,1.00
2022-07-25T07:34:16.210Z,1.20
2022-07-25T07:36:43.668Z,1.10
2022-07-25T07:39:10.745Z,1.30
2022-07-25T07:41:37.772Z,0.80
2022-07-25T07:44:05.752Z,0.93
2022-07-25T07:46:32.848Z,0.98
2022-07-25T07:48:59.902Z,0.93
2022-07-25T07:51:26.845Z,0.80
2022-07-25T07:54:12.463Z,1.00
2022-07-25T07:56:39.503Z,0.95
2022-07-25T07:59:06.645Z,0.68
2022-07-25T08:01:34.491Z,0.75
2022-07-25T08:04:01.387Z,0.80
2022-07-25T08:06:28.592Z,0.82
2022-07-25T08:08:55.617Z,0.80
2022-07-25T08:11:22.705Z,0.90
2022-07-25T08:13:49.627Z,0.80
2022-07-25T08:16:16.680Z,0.63
2022-07-25T08:18:43.559Z,0.80
2022-07-25T08:21:10.884Z,0.85
2022-07-25T08:23:40.546Z,0.90
2022-07-25T08:26:07.779Z,1.30
2022-07-25T08:28:34.699Z,1.00
2022-07-25T08:31:01.702Z,0.70
2022-07-25T08:33:28.775Z,0.70
2022-07-25T08:35:56.477Z,0.90
2022-07-25T08:38:24.776Z,0.60
2022-07-25T08:40:52.430Z,0.70
2022-07-25T08:43:19.811Z,0.77
2022-07-25T08:45:47.946Z,0.90
2022-07-25T08:48:17.226Z,0.63
2022-07-25T08:50:44.590Z,0.98
2022-07-25T08:55:58.716Z,0.60
2022-07-25T08:58:25.876Z,0.60
2022-07-25T09:00:52.897Z,0.60
2022-07-25T09:03:20.088Z,0.80
2022-07-25T09:05:47.185Z,0.75
2022-07-25T09:08:34.013Z,0.80
2022-07-25T09:11:01.942Z,0.90
2022-07-25T09:13:30.663Z,0.60
2022-07-25T09:15:59.879Z,0.80
2022-07-25T09:18:27.586Z,0.80
2022-07-25T09:20:56.370Z,0.50
2022-07-25T09:23:29.747Z,0.60
2022-07-25T09:26:02.603Z,0.70
2022-07-25T09:28:29.740Z,0.60
2022-07-25T09:30:58.041Z,0.63
2022-07-25T09:33:25.727Z,0.52
2022-07-25T09:35:53.082Z,0.50
2022-07-25T09:38:21.235Z,0.50
2022-07-25T09:40:58.422Z,0.60
2022-07-25T09:43:37.599Z,0.55
2022-07-25T09:46:05.045Z,0.63
2022-07-25T09:48:32.348Z,0.50
2022-07-25T09:50:59.399Z,0.60
2022-07-25T09:53:26.634Z,0.50
2022-07-25T09:55:55.182Z,0.60
2022-07-25T09:58:22.305Z,0.50
2022-07-25T10:00:49.879Z,0.52
2022-07-25T10:03:33.767Z,0.50
2022-07-25T10:06:07.137Z,0.60
2022-07-25T10:08:37.848Z,0.50
2022-07-25T10:11:06.822Z,0.40
2022-07-25T10:13:35.141Z,0.40
2022-07-25T10:16:02.212Z,0.43
2022-07-25T10:18:29.804Z,0.50
2022-07-25T10:21:24.426Z,0.50
2022-07-25T10:24:17.858Z,0.50
2022-07-25T10:26:51.859Z,0.50
2022-07-25T10:29:18.739Z,0.35
2022-07-25T10:31:51.990Z,0.38
2022-07-25T10:34:28.533Z,0.40
2022-07-25T10:36:57.454Z,0.40
2022-07-25T10:39:24.431Z,0.50
2022-07-25T10:42:02.846Z,0.35
2022-07-25T10:44:40.125Z,0.50
2022-07-25T10:47:08.697Z,0.57
2022-07-25T10:49:36.402Z,0.80
2022-07-25T10:52:04.238Z,0.40
2022-07-25T10:54:35.523Z,0.50
2022-07-25T10:57:04.120Z,0.65
2022-07-25T10:59:40.538Z,0.65
2022-07-25T11:02:09.672Z,0.70
2022-07-25T11:04:36.854Z,0.63
2022-07-25T11:07:10.575Z,0.55
2022-07-25T11:09:37.730Z,0.70
2022-07-25T11:12:04.847Z,0.50
2022-07-25T11:14:37.596Z,0.50
2022-07-25T11:17:15.590Z,0.40
2022-07-25T11:19:43.752Z,0.60
2022-07-25T11:22:11.154Z,0.50
2022-07-25T11:24:42.282Z,0.40
2022-07-25T11:27:13.119Z,0.55
2022-07-25T11:29:43.421Z,0.60
2022-07-25T11:32:12.206Z,0.40
2022-07-25T11:34:50.572Z,0.40
2022-07-25T11:37:18.688Z,0.43
2022-07-25T11:39:47.205Z,0.63
2022-07-25T11:42:21.871Z,0.60
2022-07-25T11:44:50.624Z,0.60
2022-07-25T11:47:29.779Z,0.60
2022-07-25T11:49:58.348Z,0.50
2022-07-25T11:52:30.333Z,0.50
2022-07-25T11:55:04.575Z,0.60
2022-07-25T11:57:32.494Z,0.60
2022-07-25T12:00:00.490Z,0.70
2022-07-25T12:02:28.707Z,0.70
2022-07-25T12:05:03.622Z,0.70
2022-07-25T12:07:39.662Z,0.65
2022-07-25T12:10:07.619Z,0.77
2022-07-25T12:12:44.914Z,0.60
2022-07-25T12:17:39.056Z,0.38
2022-07-25T12:20:10.828Z,0.45
2022-07-25T12:22:38.034Z,0.40
2022-07-25T12:25:05.313Z,0.35
2022-07-25T12:27:32.279Z,0.50
2022-07-25T12:29:59.192Z,0.30
2022-07-25T12:32:26.162Z,0.40
2022-07-25T12:34:53.081Z,0.40
2022-07-25T12:37:21.814Z,0.40
2022-07-25T12:39:49.124Z,0.60
2022-07-25T12:42:17.953Z,0.52
2022-07-25T12:44:44.987Z,0.50
2022-07-25T12:47:12.049Z,0.60
2022-07-25T12:49:39.130Z,0.40
2022-07-25T12:52:06.126Z,0.50
2022-07-25T12:54:33.081Z,0.40
2022-07-25T12:57:00.062Z,0.60
2022-07-25T12:59:27.177Z,0.50
2022-07-25T13:01:54.146Z,0.60
2022-07-25T13:04:21.092Z,0.60
2022-07-25T13:06:48.010Z,0.60
2022-07-25T13:09:14.973Z,0.60
2022-07-25T13:11:42.487Z,0.80
2022-07-25T13:14:09.623Z,0.40
2022-07-25T13:16:38.036Z,0.60
2022-07-25T13:19:05.667Z,0.77
2022-07-25T13:21:32.686Z,0.77
2022-07-25T13:23:59.699Z,0.57
2022-07-25T13:26:26.624Z,1.00
2022-07-25T13:28:59.658Z,0.50
2022-07-25T13:31:26.990Z,0.70
2022-07-25T13:33:54.058Z,0.65
2022-07-25T13:36:21.194Z,0.60
2022-07-25T13:38:48.083Z,0.60
2022-07-25T13:41:14.944Z,0.70
2022-07-25T13:43:43.282Z,1.23
2022-07-25T13:46:10.746Z,0.80
2022-07-25T13:48:37.876Z,0.73
2022-07-25T13:51:05.406Z,0.88
2022-07-25T13:53:32.616Z,0.80
2022-07-25T13:56:00.375Z,0.90
2022-07-25T13:58:27.922Z,1.20
2022-07-25T14:00:55.349Z,1.10
2022-07-25T14:03:22.311Z,1.10
2022-07-25T14:05:49.378Z,1.00
2022-07-25T14:08:16.384Z,1.00
2022-07-25T14:10:43.876Z,0.98
2022-07-25T14:13:12.800Z,0.90
2022-07-25T14:15:39.698Z,1.00
2022-07-25T14:18:06.639Z,0.80
2022-07-25T14:20:33.617Z,0.80
2022-07-25T14:23:01.246Z,1.05
2022-07-25T14:25:28.197Z,1.00
2022-07-25T14:27:55.219Z,0.93
2022-07-25T14:30:22.220Z,1.10
2022-07-25T14:32:49.170Z,1.20
2022-07-25T14:35:16.096Z,1.10
2022-07-25T14:37:43.007Z,1.20
2022-07-25T14:40:11.918Z,1.00
2022-07-25T14:42:39.006Z,1.20
2022-07-25T14:45:06.206Z,1.40
2022-07-25T14:47:33.051Z,1.05
2022-07-25T14:49:59.988Z,1.15
2022-07-25T14:52:27.002Z,1.30
2022-07-25T14:54:53.852Z,1.52
2022-07-25T14:57:20.815Z,1.30
2022-07-25T14:59:47.700Z,1.10
2022-07-25T15:02:14.598Z,1.30
2022-07-25T15:04:41.670Z,1.27
2022-07-25T15:07:08.735Z,1.20
2022-07-25T15:09:35.648Z,1.00
2022-07-25T15:12:02.604Z,1.27
2022-07-25T15:14:29.510Z,1.15
2022-07-25T15:16:56.524Z,1.25
2022-07-25T15:19:23.512Z,0.98
2022-07-25T15:21:52.747Z,1.00
2022-07-25T15:24:19.625Z,1.10
2022-07-25T15:26:46.532Z,1.20
2022-07-25T15:29:18.694Z,1.20
2022-07-25T15:31:45.754Z,1.10
2022-07-25T15:34:12.829Z,1.00
2022-07-25T15:36:40.193Z,0.90
2022-07-25T15:39:08.145Z,0.80
2022-07-25T15:41:35.443Z,1.02
2022-07-25T15:44:02.317Z,1.00
2022-07-25T15:46:29.302Z,1.00
2022-07-25T15:48:57.902Z,1.10
2022-07-25T15:51:25.049Z,1.00
2022-07-25T15:53:51.965Z,1.10
2022-07-25T15:56:18.951Z,0.90
2022-07-25T15:58:47.698Z,0.98
2022-07-25T16:01:14.847Z,0.80
2022-07-25T16:03:44.655Z,0.90
2022-07-25T16:06:15.551Z,0.90
2022-07-25T16:08:45.398Z,0.95
2022-07-25T16:11:12.269Z,1.05
2022-07-25T16:13:39.176Z,1.20
2022-07-25T16:16:06.249Z,1.02
2022-07-25T16:18:33.205Z,1.35
2022-07-25T16:21:00.109Z,1.15
2022-07-25T16:23:28.532Z,1.23
2022-07-25T16:25:55.411Z,1.13
2022-07-25T16:28:22.373Z,1.20
2022-07-25T16:30:49.316Z,1.00
2022-07-25T16:33:17.039Z,1.00
2022-07-25T16:35:43.970Z,0.90
2022-07-25T16:38:10.861Z,1.00
2022-07-25T16:40:37.987Z,0.82
2022-07-25T16:43:04.863Z,1.02
2022-07-25T16:45:31.820Z,1.00
2022-07-25T16:47:58.704Z,1.00
2022-07-25T16:50:25.583Z,0.90
2022-07-25T16:52:53.751Z,1.00
2022-07-25T16:55:20.710Z,1.23
2022-07-25T16:57:47.573Z,1.17
2022-07-25T17:00:14.510Z,1.10
2022-07-25T17:02:43.411Z,1.00
2022-07-25T17:05:10.416Z,0.93
2022-07-25T17:07:37.948Z,1.00
2022-07-25T17:10:05.268Z,1.10
2022-07-25T17:12:32.236Z,1.10
2022-07-25T17:14:59.140Z,0.88
2022-07-25T17:17:26.032Z,0.88
2022-07-25T17:19:56.610Z,0.90
2022-07-25T17:22:26.744Z,1.00
2022-07-25T17:24:53.682Z,1.20
2022-07-25T17:27:20.605Z,0.90
2022-07-25T17:29:47.866Z,1.10
2022-07-25T17:32:14.744Z,1.20
2022-07-25T17:34:41.671Z,0.90
2022-07-25T17:37:08.608Z,1.00
2022-07-25T17:39:35.563Z,0.98
2022-07-25T17:42:07.161Z,1.08
2022-07-25T17:44:34.897Z,1.00
2022-07-25T17:47:03.084Z,1.17
2022-07-25T17:49:30.153Z,1.10
2022-07-25T17:51:57.048Z,1.00
2022-07-25T17:54:23.986Z,1.15
2022-07-25T17:56:50.846Z,1.42
2022-07-25T17:59:17.768Z,1.10
2022-07-25T18:01:44.644Z,1.15
2022-07-25T18:04:11.811Z,1.33
2022-07-25T18:06:39.046Z,1.17
2022-07-25T18:09:06.113Z,1.10
2022-07-25T18:11:34.627Z,1.20
2022-07-25T18:14:01.560Z,1.17
2022-07-25T18:16:28.579Z,1.10
2022-07-25T18:18:55.664Z,1.05
2022-07-25T18:21:23.794Z,0.98
2022-07-25T18:23:51.236Z,1.10
2022-07-25T18:26:18.389Z,1.20
2022-07-25T18:28:45.552Z,1.10
2022-07-25T18:31:12.676Z,1.17
2022-07-25T18:33:39.641Z,1.20
2022-07-25T18:36:07.892Z,1.10
2022-07-25T18:38:36.035Z,1.10
2022-07-25T18:41:27.669Z,1.00
2022-07-25T18:43:50.281Z,1.08
2022-07-25T18:46:17.973Z,1.20
2022-07-25T18:48:45.208Z,1.02
2022-07-25T18:51:12.319Z,1.10
2022-07-25T18:53:39.207Z,1.20
2022-07-25T18:56:06.343Z,1.05
2022-07-25T18:58:33.378Z,1.13
2022-07-25T19:01:00.388Z,1.08
2022-07-25T19:03:27.700Z,1.17
2022-07-25T19:05:57.663Z,1.05
2022-07-25T19:08:26.967Z,1.08
2022-07-25T19:10:54.020Z,1.13
2022-07-25T19:13:46.719Z,0.90
2022-07-25T19:16:08.351Z,1.20
2022-07-25T19:18:35.917Z,1.30
2022-07-25T19:21:02.906Z,1.30
2022-07-25T19:23:29.898Z,1.08
2022-07-25T19:25:57.084Z,1.02
2022-07-25T19:28:24.167Z,0.77
2022-07-25T19:30:51.231Z,0.90
2022-07-25T19:33:18.227Z,0.95
2022-07-25T19:35:45.411Z,0.90
2022-07-25T19:38:12.379Z,0.90
2022-07-25T19:40:39.391Z,0.77
2022-07-25T19:43:06.834Z,0.70
2022-07-25T19:45:33.761Z,0.75
2022-07-25T19:48:01.156Z,0.82
2022-07-25T19:50:28.080Z,0.93
2022-07-25T19:52:55.272Z,0.80
2022-07-25T19:55:22.296Z,0.70
2022-07-25T19:57:49.229Z,1.00
2022-07-25T20:00:16.225Z,0.80
2022-07-25T20:03:04.310Z,0.80
2022-07-25T20:05:45.271Z,0.70
2022-07-25T20:08:12.507Z,0.93
2022-07-25T20:10:42.417Z,0.60
2022-07-25T20:13:09.288Z,0.80
2022-07-25T20:15:36.399Z,0.70
2022-07-25T20:18:03.487Z,0.65
2022-07-25T20:20:30.386Z,0.77
2022-07-25T20:22:57.386Z,0.80
2022-07-25T20:25:24.449Z,0.65
2022-07-25T20:27:51.295Z,0.90
2022-07-25T20:30:18.352Z,0.68
2022-07-25T20:32:45.437Z,0.80
2022-07-25T20:35:12.375Z,0.60
2022-07-25T20:37:39.362Z,0.65
2022-07-25T20:40:06.922Z,0.70
2022-07-25T20:42:36.449Z,0.60
2022-07-25T20:45:04.292Z,0.60
2022-07-25T20:47:31.175Z,0.70
2022-07-25T20:49:58.033Z,0.60
2022-07-25T20:52:24.998Z,0.88
2022-07-25T20:54:52.018Z,0.60
2022-07-25T20:57:19.289Z,0.60
2022-07-25T20:59:46.153Z,0.63
2022-07-25T21:02:13.370Z,0.80
2022-07-25T21:04:40.318Z,0.70
2022-07-25T21:07:07.237Z,0.60
2022-07-25T21:09:34.662Z,0.70
2022-07-25T21:12:02.644Z,0.60
2022-07-25T21:14:29.511Z,0.60
2022-07-25T21:16:56.673Z,0.80
2022-07-25T21:19:23.635Z,0.70
2022-07-25T21:21:50.977Z,0.63
2022-07-25T21:24:17.875Z,0.70
2022-07-25T21:26:45.189Z,0.70
2022-07-25T21:29:12.200Z,0.60
2022-07-25T21:31:40.090Z,0.70
2022-07-25T21:34:07.091Z,0.80
2022-07-25T21:36:35.056Z,0.80
2022-07-25T21:39:01.964Z,0.70
2022-07-25T21:41:28.853Z,0.70
2022-07-25T21:43:55.894Z,0.55
2022-07-25T21:46:22.834Z,0.80
2022-07-25T21:49:09.120Z,0.70
2022-07-25T21:51:41.033Z,0.90
2022-07-25T21:54:08.258Z,0.98
2022-07-25T21:56:38.101Z,0.80
2022-07-25T21:59:05.508Z,0.80
2022-07-25T22:01:32.785Z,0.82
2022-07-25T22:03:59.754Z,0.80
2022-07-25T22:06:26.771Z,0.77
2022-07-25T22:08:55.286Z,0.90
2022-07-25T22:11:38.997Z,1.00
2022-07-25T22:14:10.276Z,0.80
2022-07-25T22:16:37.603Z,0.73
2022-07-25T22:19:05.111Z,0.80
2022-07-25T22:21:32.959Z,0.68
2022-07-25T22:23:59.853Z,0.90
2022-07-25T22:26:26.808Z,0.77
2022-07-25T22:28:53.767Z,1.02
2022-07-25T22:31:20.701Z,1.05
2022-07-25T22:33:47.648Z,0.80
2022-07-25T22:36:14.579Z,0.80
2022-07-25T22:38:42.954Z,0.77
2022-07-25T22:41:10.780Z,0.80
2022-07-25T22:43:48.703Z,0.90
2022-07-25T22:46:24.554Z,0.70
2022-07-25T22:48:51.471Z,0.80
2022-07-25T22:51:18.450Z,0.80
2022-07-25T22:53:45.711Z,0.80
2022-07-25T22:56:13.854Z,0.73
2022-07-25T22:58:40.746Z,0.70
2022-07-25T23:01:08.079Z,0.85
2022-07-25T23:03:36.176Z,0.80
2022-07-25T23:06:03.205Z,0.70
2022-07-25T23:08:30.264Z,0.80
2022-07-25T23:10:57.270Z,0.80
2022-07-25T23:13:24.298Z,1.00
2022-07-25T23:15:51.636Z,0.80
2022-07-25T23:18:19.783Z,0.80
2022-07-25T23:20:47.011Z,0.80
2022-07-25T23:23:14.966Z,0.75
2022-07-25T23:25:41.868Z,0.68
2022-07-25T23:28:08.760Z,1.13
2022-07-25T23:30:40.307Z,0.70
2022-07-25T23:33:08.314Z,0.60
2022-07-25T23:35:35.378Z,0.80
2022-07-25T23:38:02.663Z,0.90
2022-07-25T23:40:29.562Z,0.80
2022-07-25T23:42:56.591Z,0.65
2022-07-25T23:45:26.374Z,0.75
2022-07-25T23:47:55.529Z,0.82
2022-07-25T23:50:22.777Z,0.68
2022-07-25T23:52:49.710Z,0.80
2022-07-25T23:55:16.604Z,0.75
2022-07-25T23:57:43.522Z,0.80
